sensor_id;sensor_type;location;lat;lon;timestamp;P1;durP1;ratioP1;P2;durP2;ratioP2
18084;SDS011;9169;44.492;11.372;2023-07-31T00:00:25;31.50;;;15.90;;
18084;SDS011;9169;44.492;11.372;2023-07-31T00:02:54;28.80;;;10.77;;
18084;SDS011;9169;44.492;11.372;2023-07-31T00:05:23;23.80;;;9.47;;
18084;SDS011;9169;44.492;11.372;2023-07-31T00:07:52;24.70;;;8.97;;
18084;SDS011;9169;44.492;11.372;2023-07-31T00:10:22;22.43;;;5.67;;
18084;SDS011;9169;44.492;11.372;2023-07-31T00:12:51;23.43;;;6.97;;
18084;SDS011;9169;44.492;11.372;2023-07-31T00:15:21;22.53;;;7.10;;
18084;SDS011;9169;44.492;11.372;2023-07-31T00:17:50;23.90;;;7.33;;
18084;SDS011;9169;44.492;11.372;2023-07-31T00:20:18;23.53;;;8.57;;
18084;SDS011;9169;44.492;11.372;2023-07-31T00:22:47;24.33;;;5.90;;
18084;SDS011;9169;44.492;11.372;2023-07-31T00:25:15;22.53;;;6.30;;
18084;SDS011;9169;44.492;11.372;2023-07-31T00:27:45;21.57;;;6.70;;
18084;SDS011;9169;44.492;11.372;2023-07-31T00:30:14;22.47;;;7.47;;
18084;SDS011;9169;44.492;11.372;2023-07-31T00:32:43;24.70;;;7.60;;
18084;SDS011;9169;44.492;11.372;2023-07-31T00:35:12;28.17;;;7.70;;
18084;SDS011;9169;44.492;11.372;2023-07-31T00:37:41;23.13;;;6.93;;
18084;SDS011;9169;44.492;11.372;2023-07-31T00:40:09;22.83;;;7.90;;
18084;SDS011;9169;44.492;11.372;2023-07-31T00:42:38;28.83;;;8.07;;
18084;SDS011;9169;44.492;11.372;2023-07-31T00:45:09;27.90;;;4.90;;
18084;SDS011;9169;44.492;11.372;2023-07-31T00:47:37;22.87;;;7.87;;
18084;SDS011;9169;44.492;11.372;2023-07-31T00:50:07;22.50;;;6.50;;
18084;SDS011;9169;44.492;11.372;2023-07-31T00:52:38;22.37;;;7.37;;
18084;SDS011;9169;44.492;11.372;2023-07-31T00:55:06;26.70;;;8.50;;
18084;SDS011;9169;44.492;11.372;2023-07-31T00:57:36;26.00;;;7.60;;
18084;SDS011;9169;44.492;11.372;2023-07-31T01:00:09;23.63;;;6.80;;
18084;SDS011;9169;44.492;11.372;2023-07-31T01:02:38;23.47;;;8.77;;
18084;SDS011;9169;44.492;11.372;2023-07-31T01:05:07;24.80;;;9.83;;
18084;SDS011;9169;44.492;11.372;2023-07-31T01:07:39;28.20;;;9.37;;
18084;SDS011;9169;44.492;11.372;2023-07-31T01:10:15;23.53;;;6.50;;
18084;SDS011;9169;44.492;11.372;2023-07-31T01:12:48;23.00;;;6.60;;
18084;SDS011;9169;44.492;11.372;2023-07-31T01:15:21;28.47;;;8.93;;
18084;SDS011;9169;44.492;11.372;2023-07-31T01:17:49;26.73;;;8.70;;
18084;SDS011;9169;44.492;11.372;2023-07-31T01:20:18;26.03;;;9.20;;
18084;SDS011;9169;44.492;11.372;2023-07-31T01:26:10;26.90;;;7.17;;
18084;SDS011;9169;44.492;11.372;2023-07-31T01:28:44;28.33;;;10.80;;
18084;SDS011;9169;44.492;11.372;2023-07-31T01:31:23;31.40;;;11.77;;
18084;SDS011;9169;44.492;11.372;2023-07-31T01:33:53;29.57;;;13.07;;
18084;SDS011;9169;44.492;11.372;2023-07-31T01:36:24;27.43;;;11.37;;
18084;SDS011;9169;44.492;11.372;2023-07-31T01:38:57;31.67;;;12.13;;
18084;SDS011;9169;44.492;11.372;2023-07-31T01:41:28;33.83;;;6.40;;
18084;SDS011;9169;44.492;11.372;2023-07-31T01:43:57;28.97;;;8.70;;
18084;SDS011;9169;44.492;11.372;2023-07-31T01:46:25;32.67;;;9.70;;
18084;SDS011;9169;44.492;11.372;2023-07-31T01:48:55;30.40;;;9.00;;
18084;SDS011;9169;44.492;11.372;2023-07-31T01:51:24;32.10;;;8.07;;
18084;SDS011;9169;44.492;11.372;2023-07-31T01:53:52;33.63;;;8.57;;
18084;SDS011;9169;44.492;11.372;2023-07-31T01:56:21;32.30;;;7.00;;
18084;SDS011;9169;44.492;11.372;2023-07-31T01:58:51;31.50;;;8.20;;
18084;SDS011;9169;44.492;11.372;2023-07-31T02:01:19;32.00;;;6.33;;
18084;SDS011;9169;44.492;11.372;2023-07-31T02:03:48;35.10;;;8.07;;
18084;SDS011;9169;44.492;11.372;2023-07-31T02:06:17;35.07;;;8.07;;
18084;SDS011;9169;44.492;11.372;2023-07-31T02:08:45;38.63;;;7.33;;
18084;SDS011;9169;44.492;11.372;2023-07-31T02:11:14;36.37;;;7.07;;
18084;SDS011;9169;44.492;11.372;2023-07-31T02:13:45;34.97;;;8.33;;
18084;SDS011;9169;44.492;11.372;2023-07-31T02:16:15;34.67;;;7.60;;
18084;SDS011;9169;44.492;11.372;2023-07-31T02:18:44;34.33;;;7.43;;
18084;SDS011;9169;44.492;11.372;2023-07-31T02:21:12;34.03;;;7.00;;
18084;SDS011;9169;44.492;11.372;2023-07-31T02:23:41;36.57;;;7.70;;
18084;SDS011;9169;44.492;11.372;2023-07-31T02:26:10;32.33;;;7.90;;
18084;SDS011;9169;44.492;11.372;2023-07-31T02:28:39;33.07;;;7.27;;
18084;SDS011;9169;44.492;11.372;2023-07-31T02:31:11;32.53;;;7.80;;
18084;SDS011;9169;44.492;11.372;2023-07-31T02:33:41;30.53;;;6.30;;
18084;SDS011;9169;44.492;11.372;2023-07-31T02:36:09;36.23;;;7.23;;
18084;SDS011;9169;44.492;11.372;2023-07-31T02:38:38;36.07;;;8.10;;
18084;SDS011;9169;44.492;11.372;2023-07-31T02:41:08;31.83;;;8.30;;
18084;SDS011;9169;44.492;11.372;2023-07-31T02:43:36;32.07;;;8.03;;
18084;SDS011;9169;44.492;11.372;2023-07-31T02:46:05;30.67;;;6.20;;
18084;SDS011;9169;44.492;11.372;2023-07-31T02:48:35;30.93;;;6.10;;
18084;SDS011;9169;44.492;11.372;2023-07-31T02:51:06;32.10;;;6.07;;
18084;SDS011;9169;44.492;11.372;2023-07-31T02:53:34;32.47;;;7.00;;
18084;SDS011;9169;44.492;11.372;2023-07-31T02:56:03;32.40;;;7.67;;
18084;SDS011;9169;44.492;11.372;2023-07-31T02:58:32;34.00;;;7.50;;
18084;SDS011;9169;44.492;11.372;2023-07-31T03:01:00;33.53;;;8.10;;
18084;SDS011;9169;44.492;11.372;2023-07-31T03:03:29;31.97;;;8.10;;
18084;SDS011;9169;44.492;11.372;2023-07-31T03:05:58;33.73;;;7.47;;
18084;SDS011;9169;44.492;11.372;2023-07-31T03:08:28;31.80;;;8.00;;
18084;SDS011;9169;44.492;11.372;2023-07-31T03:10:57;34.27;;;6.70;;
18084;SDS011;9169;44.492;11.372;2023-07-31T03:13:25;30.67;;;6.70;;
18084;SDS011;9169;44.492;11.372;2023-07-31T03:15:54;32.90;;;6.90;;
18084;SDS011;9169;44.492;11.372;2023-07-31T03:18:22;33.27;;;6.43;;
18084;SDS011;9169;44.492;11.372;2023-07-31T03:20:51;32.27;;;8.37;;
18084;SDS011;9169;44.492;11.372;2023-07-31T03:23:20;32.60;;;7.47;;
18084;SDS011;9169;44.492;11.372;2023-07-31T03:25:59;32.77;;;6.63;;
18084;SDS011;9169;44.492;11.372;2023-07-31T03:28:29;34.40;;;8.17;;
18084;SDS011;9169;44.492;11.372;2023-07-31T03:30:58;38.03;;;7.53;;
18084;SDS011;9169;44.492;11.372;2023-07-31T03:33:29;41.37;;;7.77;;
18084;SDS011;9169;44.492;11.372;2023-07-31T03:35:58;36.20;;;7.60;;
18084;SDS011;9169;44.492;11.372;2023-07-31T03:38:27;36.00;;;7.37;;
18084;SDS011;9169;44.492;11.372;2023-07-31T03:40:59;32.30;;;5.80;;
18084;SDS011;9169;44.492;11.372;2023-07-31T03:43:29;32.67;;;7.03;;
18084;SDS011;9169;44.492;11.372;2023-07-31T03:45:58;32.53;;;8.80;;
18084;SDS011;9169;44.492;11.372;2023-07-31T03:48:27;34.40;;;7.20;;
18084;SDS011;9169;44.492;11.372;2023-07-31T03:50:55;32.13;;;7.17;;
18084;SDS011;9169;44.492;11.372;2023-07-31T03:53:24;31.40;;;8.80;;
18084;SDS011;9169;44.492;11.372;2023-07-31T03:55:52;38.37;;;7.70;;
18084;SDS011;9169;44.492;11.372;2023-07-31T03:58:22;36.33;;;7.73;;
18084;SDS011;9169;44.492;11.372;2023-07-31T04:00:54;36.93;;;10.30;;
18084;SDS011;9169;44.492;11.372;2023-07-31T04:03:22;31.73;;;8.17;;
18084;SDS011;9169;44.492;11.372;2023-07-31T04:05:51;39.60;;;8.20;;
18084;SDS011;9169;44.492;11.372;2023-07-31T04:08:22;33.90;;;8.90;;
18084;SDS011;9169;44.492;11.372;2023-07-31T04:10:51;34.47;;;6.63;;
18084;SDS011;9169;44.492;11.372;2023-07-31T04:13:21;36.40;;;7.20;;
18084;SDS011;9169;44.492;11.372;2023-07-31T04:15:54;37.17;;;7.50;;
18084;SDS011;9169;44.492;11.372;2023-07-31T04:18:25;31.90;;;7.07;;
18084;SDS011;9169;44.492;11.372;2023-07-31T04:20:53;33.30;;;6.97;;
18084;SDS011;9169;44.492;11.372;2023-07-31T04:23:25;33.70;;;8.27;;
18084;SDS011;9169;44.492;11.372;2023-07-31T04:25:53;36.63;;;9.30;;
18084;SDS011;9169;44.492;11.372;2023-07-31T04:28:23;35.47;;;6.47;;
18084;SDS011;9169;44.492;11.372;2023-07-31T04:30:52;36.37;;;7.93;;
18084;SDS011;9169;44.492;11.372;2023-07-31T04:33:21;32.67;;;8.10;;
18084;SDS011;9169;44.492;11.372;2023-07-31T04:35:50;38.80;;;9.73;;
18084;SDS011;9169;44.492;11.372;2023-07-31T04:38:19;36.73;;;9.20;;
18084;SDS011;9169;44.492;11.372;2023-07-31T04:40:48;38.50;;;7.87;;
18084;SDS011;9169;44.492;11.372;2023-07-31T04:43:19;40.33;;;10.37;;
18084;SDS011;9169;44.492;11.372;2023-07-31T04:45:49;38.10;;;8.67;;
18084;SDS011;9169;44.492;11.372;2023-07-31T04:48:18;41.43;;;7.47;;
18084;SDS011;9169;44.492;11.372;2023-07-31T04:50:47;39.83;;;7.90;;
18084;SDS011;9169;44.492;11.372;2023-07-31T04:53:15;34.73;;;6.70;;
18084;SDS011;9169;44.492;11.372;2023-07-31T04:55:44;35.40;;;8.40;;
18084;SDS011;9169;44.492;11.372;2023-07-31T04:58:13;35.70;;;7.33;;
18084;SDS011;9169;44.492;11.372;2023-07-31T05:00:41;35.40;;;7.10;;
18084;SDS011;9169;44.492;11.372;2023-07-31T05:03:11;33.97;;;7.80;;
18084;SDS011;9169;44.492;11.372;2023-07-31T05:05:41;35.33;;;7.00;;
18084;SDS011;9169;44.492;11.372;2023-07-31T05:08:10;33.67;;;6.77;;
18084;SDS011;9169;44.492;11.372;2023-07-31T05:10:38;33.60;;;6.37;;
18084;SDS011;9169;44.492;11.372;2023-07-31T05:13:07;34.43;;;7.90;;
18084;SDS011;9169;44.492;11.372;2023-07-31T05:15:35;33.70;;;7.83;;
18084;SDS011;9169;44.492;11.372;2023-07-31T05:18:04;33.57;;;7.83;;
18084;SDS011;9169;44.492;11.372;2023-07-31T05:20:34;35.10;;;6.10;;
18084;SDS011;9169;44.492;11.372;2023-07-31T05:23:02;36.07;;;6.67;;
18084;SDS011;9169;44.492;11.372;2023-07-31T05:25:32;38.37;;;6.10;;
18084;SDS011;9169;44.492;11.372;2023-07-31T05:28:03;35.97;;;7.30;;
18084;SDS011;9169;44.492;11.372;2023-07-31T05:30:31;32.80;;;6.77;;
18084;SDS011;9169;44.492;11.372;2023-07-31T05:33:00;38.03;;;6.50;;
18084;SDS011;9169;44.492;11.372;2023-07-31T05:35:28;35.43;;;7.40;;
18084;SDS011;9169;44.492;11.372;2023-07-31T05:37:58;35.70;;;8.10;;
18084;SDS011;9169;44.492;11.372;2023-07-31T05:40:29;37.13;;;8.90;;
18084;SDS011;9169;44.492;11.372;2023-07-31T05:43:00;38.50;;;7.37;;
18084;SDS011;9169;44.492;11.372;2023-07-31T05:45:29;33.27;;;7.50;;
18084;SDS011;9169;44.492;11.372;2023-07-31T05:47:57;38.00;;;9.70;;
18084;SDS011;9169;44.492;11.372;2023-07-31T05:50:25;34.70;;;8.40;;
18084;SDS011;9169;44.492;11.372;2023-07-31T05:52:54;36.20;;;8.10;;
18084;SDS011;9169;44.492;11.372;2023-07-31T05:55:24;37.40;;;8.70;;
18084;SDS011;9169;44.492;11.372;2023-07-31T05:57:53;41.10;;;9.80;;
18084;SDS011;9169;44.492;11.372;2023-07-31T06:00:23;38.50;;;8.90;;
18084;SDS011;9169;44.492;11.372;2023-07-31T06:02:51;44.37;;;9.10;;
18084;SDS011;9169;44.492;11.372;2023-07-31T06:05:20;38.90;;;10.10;;
18084;SDS011;9169;44.492;11.372;2023-07-31T06:07:48;41.87;;;14.17;;
18084;SDS011;9169;44.492;11.372;2023-07-31T06:10:17;39.43;;;15.03;;
18084;SDS011;9169;44.492;11.372;2023-07-31T06:12:47;40.03;;;11.30;;
18084;SDS011;9169;44.492;11.372;2023-07-31T06:15:16;39.60;;;14.10;;
18084;SDS011;9169;44.492;11.372;2023-07-31T06:17:45;46.80;;;16.37;;
18084;SDS011;9169;44.492;11.372;2023-07-31T06:20:14;39.37;;;13.27;;
18084;SDS011;9169;44.492;11.372;2023-07-31T06:22:43;37.77;;;13.60;;
18084;SDS011;9169;44.492;11.372;2023-07-31T06:25:11;39.40;;;15.20;;
18084;SDS011;9169;44.492;11.372;2023-07-31T06:27:41;38.50;;;10.53;;
18084;SDS011;9169;44.492;11.372;2023-07-31T06:30:11;35.53;;;9.67;;
18084;SDS011;9169;44.492;11.372;2023-07-31T06:32:40;36.90;;;9.73;;
18084;SDS011;9169;44.492;11.372;2023-07-31T06:35:09;31.93;;;6.40;;
18084;SDS011;9169;44.492;11.372;2023-07-31T06:37:38;33.70;;;10.60;;
18084;SDS011;9169;44.492;11.372;2023-07-31T06:40:10;34.57;;;7.30;;
18084;SDS011;9169;44.492;11.372;2023-07-31T06:42:39;33.07;;;7.07;;
18084;SDS011;9169;44.492;11.372;2023-07-31T06:45:08;30.77;;;7.30;;
18084;SDS011;9169;44.492;11.372;2023-07-31T06:47:38;29.90;;;6.20;;
18084;SDS011;9169;44.492;11.372;2023-07-31T06:50:07;29.50;;;7.43;;
18084;SDS011;9169;44.492;11.372;2023-07-31T06:52:36;33.50;;;7.53;;
18084;SDS011;9169;44.492;11.372;2023-07-31T06:55:15;31.10;;;8.20;;
18084;SDS011;9169;44.492;11.372;2023-07-31T06:57:45;35.20;;;9.03;;
18084;SDS011;9169;44.492;11.372;2023-07-31T07:00:14;31.13;;;9.90;;
18084;SDS011;9169;44.492;11.372;2023-07-31T07:02:44;27.27;;;10.40;;
18084;SDS011;9169;44.492;11.372;2023-07-31T07:05:14;28.47;;;12.47;;
18084;SDS011;9169;44.492;11.372;2023-07-31T07:07:43;29.43;;;16.00;;
18084;SDS011;9169;44.492;11.372;2023-07-31T07:10:11;28.47;;;14.77;;
18084;SDS011;9169;44.492;11.372;2023-07-31T07:12:41;27.00;;;14.73;;
18084;SDS011;9169;44.492;11.372;2023-07-31T07:15:09;27.27;;;13.57;;
18084;SDS011;9169;44.492;11.372;2023-07-31T07:17:38;26.27;;;11.83;;
18084;SDS011;9169;44.492;11.372;2023-07-31T07:20:09;28.60;;;14.20;;
18084;SDS011;9169;44.492;11.372;2023-07-31T07:22:37;26.03;;;10.23;;
18084;SDS011;9169;44.492;11.372;2023-07-31T07:25:06;25.90;;;9.53;;
18084;SDS011;9169;44.492;11.372;2023-07-31T07:27:35;27.13;;;13.00;;
18084;SDS011;9169;44.492;11.372;2023-07-31T07:30:04;24.83;;;12.70;;
18084;SDS011;9169;44.492;11.372;2023-07-31T07:32:33;22.90;;;9.00;;
18084;SDS011;9169;44.492;11.372;2023-07-31T07:35:02;23.83;;;11.57;;
18084;SDS011;9169;44.492;11.372;2023-07-31T07:37:32;26.07;;;11.03;;
18084;SDS011;9169;44.492;11.372;2023-07-31T07:40:01;25.10;;;10.70;;
18084;SDS011;9169;44.492;11.372;2023-07-31T07:42:30;24.10;;;11.87;;
18084;SDS011;9169;44.492;11.372;2023-07-31T07:44:59;27.30;;;13.37;;
18084;SDS011;9169;44.492;11.372;2023-07-31T07:47:28;23.27;;;11.07;;
18084;SDS011;9169;44.492;11.372;2023-07-31T07:49:56;24.70;;;10.37;;
18084;SDS011;9169;44.492;11.372;2023-07-31T07:52:25;27.80;;;9.03;;
18084;SDS011;9169;44.492;11.372;2023-07-31T07:54:57;22.70;;;8.67;;
18084;SDS011;9169;44.492;11.372;2023-07-31T07:57:27;26.93;;;10.97;;
18084;SDS011;9169;44.492;11.372;2023-07-31T07:59:55;24.27;;;11.37;;
18084;SDS011;9169;44.492;11.372;2023-07-31T08:02:24;24.10;;;8.47;;
18084;SDS011;9169;44.492;11.372;2023-07-31T08:04:53;23.43;;;10.40;;
18084;SDS011;9169;44.492;11.372;2023-07-31T08:07:21;25.33;;;8.87;;
18084;SDS011;9169;44.492;11.372;2023-07-31T08:09:50;21.90;;;7.43;;
18084;SDS011;9169;44.492;11.372;2023-07-31T08:12:22;22.30;;;7.30;;
18084;SDS011;9169;44.492;11.372;2023-07-31T08:14:51;22.23;;;7.93;;
18084;SDS011;9169;44.492;11.372;2023-07-31T08:17:20;23.93;;;10.27;;
18084;SDS011;9169;44.492;11.372;2023-07-31T08:19:50;24.93;;;11.23;;
18084;SDS011;9169;44.492;11.372;2023-07-31T08:22:18;21.27;;;7.97;;
18084;SDS011;9169;44.492;11.372;2023-07-31T08:24:47;23.67;;;7.40;;
18084;SDS011;9169;44.492;11.372;2023-07-31T08:27:16;23.17;;;8.63;;
18084;SDS011;9169;44.492;11.372;2023-07-31T08:29:46;21.90;;;7.60;;
18084;SDS011;9169;44.492;11.372;2023-07-31T08:32:14;28.13;;;9.60;;
18084;SDS011;9169;44.492;11.372;2023-07-31T08:34:44;24.33;;;10.93;;
18084;SDS011;9169;44.492;11.372;2023-07-31T08:37:13;20.57;;;7.43;;
18084;SDS011;9169;44.492;11.372;2023-07-31T08:39:42;21.70;;;8.30;;
18084;SDS011;9169;44.492;11.372;2023-07-31T08:42:11;26.17;;;8.10;;
18084;SDS011;9169;44.492;11.372;2023-07-31T08:44:43;19.73;;;7.40;;
18084;SDS011;9169;44.492;11.372;2023-07-31T08:47:17;20.30;;;6.33;;
18084;SDS011;9169;44.492;11.372;2023-07-31T08:49:48;17.80;;;5.33;;
18084;SDS011;9169;44.492;11.372;2023-07-31T08:55:11;18.13;;;5.97;;
18084;SDS011;9169;44.492;11.372;2023-07-31T08:57:39;18.03;;;7.13;;
18084;SDS011;9169;44.492;11.372;2023-07-31T09:00:10;16.40;;;4.93;;
18084;SDS011;9169;44.492;11.372;2023-07-31T09:02:43;16.77;;;4.73;;
18084;SDS011;9169;44.492;11.372;2023-07-31T09:05:14;20.10;;;5.63;;
18084;SDS011;9169;44.492;11.372;2023-07-31T09:07:45;19.57;;;6.17;;
18084;SDS011;9169;44.492;11.372;2023-07-31T09:10:15;16.70;;;5.20;;
18084;SDS011;9169;44.492;11.372;2023-07-31T09:12:44;17.00;;;6.47;;
18084;SDS011;9169;44.492;11.372;2023-07-31T09:15:14;23.93;;;5.00;;
18084;SDS011;9169;44.492;11.372;2023-07-31T09:17:51;16.70;;;5.70;;
18084;SDS011;9169;44.492;11.372;2023-07-31T09:20:28;23.87;;;5.40;;
18084;SDS011;9169;44.492;11.372;2023-07-31T09:22:57;18.50;;;5.70;;
18084;SDS011;9169;44.492;11.372;2023-07-31T09:25:33;17.93;;;4.07;;
18084;SDS011;9169;44.492;11.372;2023-07-31T09:28:03;16.90;;;5.63;;
18084;SDS011;9169;44.492;11.372;2023-07-31T09:30:43;15.57;;;4.97;;
18084;SDS011;9169;44.492;11.372;2023-07-31T09:33:16;17.90;;;6.10;;
18084;SDS011;9169;44.492;11.372;2023-07-31T09:35:46;14.50;;;4.50;;
18084;SDS011;9169;44.492;11.372;2023-07-31T09:38:15;15.90;;;5.10;;
18084;SDS011;9169;44.492;11.372;2023-07-31T09:40:45;14.50;;;5.17;;
18084;SDS011;9169;44.492;11.372;2023-07-31T09:43:17;14.80;;;5.50;;
18084;SDS011;9169;44.492;11.372;2023-07-31T09:45:47;13.80;;;6.20;;
18084;SDS011;9169;44.492;11.372;2023-07-31T09:48:23;12.20;;;4.40;;
18084;SDS011;9169;44.492;11.372;2023-07-31T09:50:54;12.87;;;4.40;;
18084;SDS011;9169;44.492;11.372;2023-07-31T09:53:27;12.50;;;4.07;;
18084;SDS011;9169;44.492;11.372;2023-07-31T09:55:58;11.33;;;2.80;;
18084;SDS011;9169;44.492;11.372;2023-07-31T09:58:27;12.57;;;3.30;;
18084;SDS011;9169;44.492;11.372;2023-07-31T10:00:57;12.40;;;3.33;;
18084;SDS011;9169;44.492;11.372;2023-07-31T10:03:28;10.00;;;4.00;;
18084;SDS011;9169;44.492;11.372;2023-07-31T10:05:57;9.83;;;3.60;;
18084;SDS011;9169;44.492;11.372;2023-07-31T10:08:30;10.43;;;3.37;;
18084;SDS011;9169;44.492;11.372;2023-07-31T10:11:03;10.23;;;3.67;;
18084;SDS011;9169;44.492;11.372;2023-07-31T10:13:33;12.73;;;3.40;;
18084;SDS011;9169;44.492;11.372;2023-07-31T10:16:02;13.80;;;3.23;;
18084;SDS011;9169;44.492;11.372;2023-07-31T10:18:33;8.73;;;2.90;;
18084;SDS011;9169;44.492;11.372;2023-07-31T10:21:03;9.80;;;3.67;;
18084;SDS011;9169;44.492;11.372;2023-07-31T10:23:32;9.10;;;3.37;;
18084;SDS011;9169;44.492;11.372;2023-07-31T10:26:01;10.63;;;3.23;;
18084;SDS011;9169;44.492;11.372;2023-07-31T10:28:32;8.20;;;2.80;;
18084;SDS011;9169;44.492;11.372;2023-07-31T10:31:02;8.10;;;2.90;;
18084;SDS011;9169;44.492;11.372;2023-07-31T10:33:33;7.00;;;2.90;;
18084;SDS011;9169;44.492;11.372;2023-07-31T10:36:16;8.20;;;2.90;;
18084;SDS011;9169;44.492;11.372;2023-07-31T10:38:46;7.60;;;3.47;;
18084;SDS011;9169;44.492;11.372;2023-07-31T10:41:17;5.47;;;2.70;;
18084;SDS011;9169;44.492;11.372;2023-07-31T10:43:46;8.40;;;3.03;;
18084;SDS011;9169;44.492;11.372;2023-07-31T10:46:15;6.03;;;2.90;;
18084;SDS011;9169;44.492;11.372;2023-07-31T10:48:45;5.53;;;2.60;;
18084;SDS011;9169;44.492;11.372;2023-07-31T10:51:32;6.00;;;2.87;;
18084;SDS011;9169;44.492;11.372;2023-07-31T10:54:11;6.97;;;2.70;;
18084;SDS011;9169;44.492;11.372;2023-07-31T10:56:44;4.90;;;2.30;;
18084;SDS011;9169;44.492;11.372;2023-07-31T10:59:15;4.45;;;2.47;;
18084;SDS011;9169;44.492;11.372;2023-07-31T11:01:52;7.05;;;2.80;;
18084;SDS011;9169;44.492;11.372;2023-07-31T11:04:26;5.60;;;2.72;;
18084;SDS011;9169;44.492;11.372;2023-07-31T11:06:55;4.03;;;2.50;;
18084;SDS011;9169;44.492;11.372;2023-07-31T11:09:27;8.25;;;2.25;;
18084;SDS011;9169;44.492;11.372;2023-07-31T11:11:58;5.35;;;2.22;;
18084;SDS011;9169;44.492;11.372;2023-07-31T11:14:30;3.72;;;2.20;;
18084;SDS011;9169;44.492;11.372;2023-07-31T11:16:59;4.65;;;2.65;;
18084;SDS011;9169;44.492;11.372;2023-07-31T11:19:29;4.38;;;2.25;;
18084;SDS011;9169;44.492;11.372;2023-07-31T11:21:58;6.88;;;2.80;;
18084;SDS011;9169;44.492;11.372;2023-07-31T11:24:27;5.55;;;2.28;;
18084;SDS011;9169;44.492;11.372;2023-07-31T11:26:56;5.25;;;2.40;;
18084;SDS011;9169;44.492;11.372;2023-07-31T11:29:27;5.35;;;2.40;;
18084;SDS011;9169;44.492;11.372;2023-07-31T11:31:56;5.90;;;2.60;;
18084;SDS011;9169;44.492;11.372;2023-07-31T11:34:25;6.32;;;2.60;;
18084;SDS011;9169;44.492;11.372;2023-07-31T11:36:55;4.88;;;2.50;;
18084;SDS011;9169;44.492;11.372;2023-07-31T11:39:23;7.53;;;2.65;;
18084;SDS011;9169;44.492;11.372;2023-07-31T11:41:58;6.80;;;2.70;;
18084;SDS011;9169;44.492;11.372;2023-07-31T11:44:29;7.28;;;2.83;;
18084;SDS011;9169;44.492;11.372;2023-07-31T11:47:06;5.82;;;2.35;;
18084;SDS011;9169;44.492;11.372;2023-07-31T11:49:36;6.28;;;3.10;;
18084;SDS011;9169;44.492;11.372;2023-07-31T11:52:06;4.97;;;2.67;;
18084;SDS011;9169;44.492;11.372;2023-07-31T11:54:36;6.60;;;2.78;;
18084;SDS011;9169;44.492;11.372;2023-07-31T11:57:05;5.25;;;2.50;;
18084;SDS011;9169;44.492;11.372;2023-07-31T11:59:34;4.95;;;2.30;;
18084;SDS011;9169;44.492;11.372;2023-07-31T12:02:03;5.63;;;2.90;;
18084;SDS011;9169;44.492;11.372;2023-07-31T12:04:32;6.00;;;2.33;;
18084;SDS011;9169;44.492;11.372;2023-07-31T12:07:01;5.05;;;2.20;;
18084;SDS011;9169;44.492;11.372;2023-07-31T12:09:31;7.38;;;2.20;;
18084;SDS011;9169;44.492;11.372;2023-07-31T12:11:59;5.07;;;2.50;;
18084;SDS011;9169;44.492;11.372;2023-07-31T12:14:28;4.40;;;2.50;;
18084;SDS011;9169;44.492;11.372;2023-07-31T12:16:58;5.07;;;2.60;;
18084;SDS011;9169;44.492;11.372;2023-07-31T12:19:31;6.10;;;2.75;;
18084;SDS011;9169;44.492;11.372;2023-07-31T12:22:00;5.07;;;2.58;;
18084;SDS011;9169;44.492;11.372;2023-07-31T12:24:28;5.28;;;2.55;;
18084;SDS011;9169;44.492;11.372;2023-07-31T12:26:59;3.80;;;2.25;;
18084;SDS011;9169;44.492;11.372;2023-07-31T12:29:33;7.13;;;2.75;;
18084;SDS011;9169;44.492;11.372;2023-07-31T12:32:03;4.10;;;2.33;;
18084;SDS011;9169;44.492;11.372;2023-07-31T12:34:35;6.18;;;2.45;;
18084;SDS011;9169;44.492;11.372;2023-07-31T12:37:10;13.57;;;2.63;;
18084;SDS011;9169;44.492;11.372;2023-07-31T12:39:39;6.07;;;2.58;;
18084;SDS011;9169;44.492;11.372;2023-07-31T12:42:09;4.82;;;2.38;;
18084;SDS011;9169;44.492;11.372;2023-07-31T12:44:37;4.93;;;2.60;;
18084;SDS011;9169;44.492;11.372;2023-07-31T12:47:06;8.77;;;2.47;;
18084;SDS011;9169;44.492;11.372;2023-07-31T12:49:35;4.32;;;2.55;;
18084;SDS011;9169;44.492;11.372;2023-07-31T12:52:04;6.90;;;2.85;;
18084;SDS011;9169;44.492;11.372;2023-07-31T12:54:33;5.05;;;2.15;;
18084;SDS011;9169;44.492;11.372;2023-07-31T12:57:02;9.27;;;3.15;;
18084;SDS011;9169;44.492;11.372;2023-07-31T12:59:32;4.88;;;2.70;;
18084;SDS011;9169;44.492;11.372;2023-07-31T13:02:01;4.80;;;2.53;;
18084;SDS011;9169;44.492;11.372;2023-07-31T13:04:29;4.80;;;2.63;;
18084;SDS011;9169;44.492;11.372;2023-07-31T13:06:58;4.72;;;2.50;;
18084;SDS011;9169;44.492;11.372;2023-07-31T13:09:27;4.65;;;2.60;;
18084;SDS011;9169;44.492;11.372;2023-07-31T13:11:55;5.30;;;2.58;;
18084;SDS011;9169;44.492;11.372;2023-07-31T13:14:24;5.10;;;2.28;;
18084;SDS011;9169;44.492;11.372;2023-07-31T13:16:54;4.60;;;2.40;;
18084;SDS011;9169;44.492;11.372;2023-07-31T13:19:23;5.32;;;2.35;;
18084;SDS011;9169;44.492;11.372;2023-07-31T13:21:51;3.67;;;2.47;;
18084;SDS011;9169;44.492;11.372;2023-07-31T13:24:20;4.50;;;2.63;;
18084;SDS011;9169;44.492;11.372;2023-07-31T13:26:48;5.68;;;2.75;;
18084;SDS011;9169;44.492;11.372;2023-07-31T13:29:17;6.80;;;2.70;;
18084;SDS011;9169;44.492;11.372;2023-07-31T13:31:46;5.97;;;2.92;;
18084;SDS011;9169;44.492;11.372;2023-07-31T13:34:18;3.83;;;2.30;;
18084;SDS011;9169;44.492;11.372;2023-07-31T13:36:47;7.47;;;2.72;;
18084;SDS011;9169;44.492;11.372;2023-07-31T13:39:15;9.38;;;2.60;;
18084;SDS011;9169;44.492;11.372;2023-07-31T13:41:44;6.22;;;2.70;;
18084;SDS011;9169;44.492;11.372;2023-07-31T13:44:13;7.13;;;2.72;;
18084;SDS011;9169;44.492;11.372;2023-07-31T13:46:42;5.25;;;2.60;;
18084;SDS011;9169;44.492;11.372;2023-07-31T13:49:11;8.30;;;3.00;;
18084;SDS011;9169;44.492;11.372;2023-07-31T13:51:41;4.63;;;2.33;;
18084;SDS011;9169;44.492;11.372;2023-07-31T13:54:10;4.88;;;2.72;;
18084;SDS011;9169;44.492;11.372;2023-07-31T13:56:40;6.07;;;2.70;;
18084;SDS011;9169;44.492;11.372;2023-07-31T13:59:08;5.47;;;2.55;;
18084;SDS011;9169;44.492;11.372;2023-07-31T14:01:37;7.32;;;2.90;;
18084;SDS011;9169;44.492;11.372;2023-07-31T14:04:06;4.25;;;2.70;;
18084;SDS011;9169;44.492;11.372;2023-07-31T14:06:35;4.88;;;2.47;;
18084;SDS011;9169;44.492;11.372;2023-07-31T14:09:05;5.07;;;2.83;;
18084;SDS011;9169;44.492;11.372;2023-07-31T14:11:34;4.00;;;2.67;;
18084;SDS011;9169;44.492;11.372;2023-07-31T14:14:03;5.72;;;2.92;;
18084;SDS011;9169;44.492;11.372;2023-07-31T14:16:32;4.72;;;2.30;;
18084;SDS011;9169;44.492;11.372;2023-07-31T14:19:00;5.38;;;2.67;;
18084;SDS011;9169;44.492;11.372;2023-07-31T14:21:32;3.75;;;2.40;;
18084;SDS011;9169;44.492;11.372;2023-07-31T14:24:01;4.75;;;2.30;;
18084;SDS011;9169;44.492;11.372;2023-07-31T14:26:31;7.00;;;2.80;;
18084;SDS011;9169;44.492;11.372;2023-07-31T14:29:00;5.03;;;2.65;;
18084;SDS011;9169;44.492;11.372;2023-07-31T14:31:29;7.53;;;2.60;;
18084;SDS011;9169;44.492;11.372;2023-07-31T14:33:57;7.53;;;2.55;;
18084;SDS011;9169;44.492;11.372;2023-07-31T14:36:26;7.72;;;2.70;;
18084;SDS011;9169;44.492;11.372;2023-07-31T14:38:54;4.72;;;2.50;;
18084;SDS011;9169;44.492;11.372;2023-07-31T14:41:23;12.45;;;2.90;;
18084;SDS011;9169;44.492;11.372;2023-07-31T14:43:53;5.30;;;2.80;;
18084;SDS011;9169;44.492;11.372;2023-07-31T14:46:22;7.30;;;2.80;;
18084;SDS011;9169;44.492;11.372;2023-07-31T14:48:50;4.88;;;2.47;;
18084;SDS011;9169;44.492;11.372;2023-07-31T14:51:19;6.47;;;2.60;;
18084;SDS011;9169;44.492;11.372;2023-07-31T14:53:48;9.30;;;2.88;;
18084;SDS011;9169;44.492;11.372;2023-07-31T14:56:17;9.50;;;2.95;;